createdAt,value
2022-08-01T00:01:10.333Z,0.00
2022-08-01T00:02:10.660Z,0.00
2022-08-01T00:04:04.413Z,0.00
2022-08-01T00:05:04.404Z,0.00
2022-08-01T00:06:58.509Z,0.00
2022-08-01T00:07:58.505Z,0.00
2022-08-01T00:09:53.230Z,0.00
2022-08-01T00:10:53.221Z,0.00
2022-08-01T00:12:47.449Z,0.00
2022-08-01T00:13:47.437Z,0.00
2022-08-01T00:15:41.503Z,0.00
2022-08-01T00:16:41.503Z,0.00
2022-08-01T00:18:36.613Z,0.00
2022-08-01T00:19:36.579Z,0.00
2022-08-01T00:21:30.679Z,0.00
2022-08-01T00:22:30.677Z,0.00
2022-08-01T00:24:25.777Z,0.00
2022-08-01T00:25:34.065Z,0.00
2022-08-01T00:27:19.894Z,0.00
2022-08-01T00:28:19.893Z,0.00
2022-08-01T00:30:15.186Z,0.00
2022-08-01T00:31:14.718Z,0.00
2022-08-01T00:33:08.573Z,0.00
2022-08-01T00:34:08.562Z,0.00
2022-08-01T00:36:02.678Z,0.00
2022-08-01T00:37:02.665Z,0.00
2022-08-01T00:38:56.810Z,0.00
2022-08-01T00:39:56.795Z,0.00
2022-08-01T00:41:59.945Z,0.00
2022-08-01T00:42:51.878Z,0.00
2022-08-01T00:44:46.053Z,0.00
2022-08-01T00:45:46.033Z,0.00
2022-08-01T00:47:41.122Z,0.00
2022-08-01T00:48:41.100Z,0.00
2022-08-01T00:50:35.177Z,0.00
2022-08-01T00:51:35.175Z,0.00
2022-08-01T00:53:38.684Z,0.00
2022-08-01T00:54:29.234Z,0.00
2022-08-01T00:56:23.314Z,0.00
2022-08-01T00:57:27.890Z,0.00
2022-08-01T00:59:17.417Z,0.00
2022-08-01T01:00:17.401Z,0.00
2022-08-01T01:02:14.864Z,0.00
2022-08-01T01:03:11.490Z,0.00
2022-08-01T01:05:05.568Z,0.00
2022-08-01T01:06:05.555Z,0.00
2022-08-01T01:08:00.652Z,0.00
2022-08-01T01:09:00.640Z,0.00
2022-08-01T01:10:54.350Z,0.00
2022-08-01T01:11:54.346Z,0.00
2022-08-01T01:13:50.341Z,0.00
2022-08-01T01:14:48.518Z,0.00
2022-08-01T01:16:42.627Z,0.00
2022-08-01T01:17:51.039Z,0.00
2022-08-01T01:19:36.871Z,0.00
2022-08-01T01:20:36.858Z,0.00
2022-08-01T01:22:30.947Z,0.00
2022-08-01T01:23:30.944Z,0.00
2022-08-01T01:25:25.046Z,0.00
2022-08-01T01:26:25.030Z,0.00
2022-08-01T01:28:19.478Z,0.00
2022-08-01T01:29:19.467Z,0.00
2022-08-01T01:31:13.538Z,0.00
2022-08-01T01:32:13.537Z,0.00
2022-08-01T01:34:07.608Z,0.00
2022-08-01T01:35:07.598Z,0.00
2022-08-01T01:37:02.702Z,0.00
2022-08-01T01:38:02.694Z,0.00
2022-08-01T01:39:56.822Z,0.00
2022-08-01T01:40:56.808Z,0.00
2022-08-01T01:42:50.951Z,0.00
2022-08-01T01:43:50.933Z,0.00
2022-08-01T01:45:45.007Z,0.00
2022-08-01T01:46:45.003Z,0.00
2022-08-01T01:48:39.090Z,0.00
2022-08-01T01:49:39.076Z,0.00
2022-08-01T01:51:33.153Z,0.00
2022-08-01T01:52:33.149Z,0.00
2022-08-01T01:54:27.419Z,0.00
2022-08-01T01:55:27.404Z,0.00
2022-08-01T01:57:21.481Z,0.00
2022-08-01T01:58:21.479Z,0.00
2022-08-01T02:00:15.554Z,0.00
2022-08-01T02:01:15.587Z,0.00
2022-08-01T02:03:10.674Z,0.00
2022-08-01T02:04:10.671Z,0.00
2022-08-01T02:06:05.724Z,0.00
2022-08-01T02:07:05.720Z,0.00
2022-08-01T02:08:59.880Z,0.00
2022-08-01T02:09:59.862Z,0.00
2022-08-01T02:12:08.113Z,0.00
2022-08-01T02:12:53.708Z,0.00
2022-08-01T02:14:47.790Z,0.00
2022-08-01T02:15:59.361Z,0.00
2022-08-01T02:17:41.913Z,0.00
2022-08-01T02:18:41.896Z,0.00
2022-08-01T02:20:35.950Z,0.00
2022-08-01T02:21:35.941Z,0.00
2022-08-01T02:23:31.076Z,0.00
2022-08-01T02:24:31.061Z,0.00
2022-08-01T02:26:25.235Z,0.00
2022-08-01T02:27:25.225Z,0.00
2022-08-01T02:29:20.421Z,0.00
2022-08-01T02:30:20.405Z,0.00
2022-08-01T02:32:14.450Z,0.00
2022-08-01T02:33:16.125Z,0.00
2022-08-01T02:35:08.555Z,0.00
2022-08-01T02:36:31.276Z,0.00
2022-08-01T02:38:02.706Z,0.00
2022-08-01T02:39:02.701Z,0.00
2022-08-01T02:40:56.967Z,0.00
2022-08-01T02:41:56.959Z,0.00
2022-08-01T02:43:53.466Z,0.00
2022-08-01T02:44:52.042Z,0.00
2022-08-01T02:46:46.139Z,0.00
2022-08-01T02:47:46.136Z,0.00
2022-08-01T02:49:40.207Z,0.00
2022-08-01T02:50:40.189Z,0.00
2022-08-01T02:52:35.383Z,0.00
2022-08-01T02:53:38.912Z,0.00
2022-08-01T02:55:29.462Z,0.00
2022-08-01T02:56:29.456Z,0.00
2022-08-01T02:58:23.503Z,0.00
2022-08-01T02:59:23.487Z,0.00
2022-08-01T03:01:17.629Z,0.00
2022-08-01T03:02:17.574Z,0.00
2022-08-01T03:04:12.622Z,0.00
2022-08-01T03:05:12.610Z,0.00
2022-08-01T03:07:06.786Z,0.00
2022-08-01T03:08:14.526Z,0.00
2022-08-01T03:10:00.897Z,0.00
2022-08-01T03:11:00.883Z,0.00
2022-08-01T03:12:54.729Z,0.00
2022-08-01T03:13:54.708Z,0.00
2022-08-01T03:15:48.846Z,0.00
2022-08-01T03:16:48.843Z,0.00
2022-08-01T03:18:42.910Z,0.00
2022-08-01T03:19:42.892Z,0.00
2022-08-01T03:21:36.958Z,0.00
2022-08-01T03:22:36.953Z,0.00
2022-08-01T03:24:31.078Z,0.00
2022-08-01T03:25:31.061Z,0.00
2022-08-01T03:27:26.173Z,0.00
2022-08-01T03:28:29.662Z,0.00
2022-08-01T03:30:19.893Z,0.00
2022-08-01T03:31:19.879Z,0.00
2022-08-01T03:33:14.493Z,0.00
2022-08-01T03:34:13.943Z,0.00
2022-08-01T03:36:09.115Z,0.00
2022-08-01T03:37:09.111Z,0.00
2022-08-01T03:39:04.247Z,0.00
2022-08-01T03:40:04.231Z,4.00
2022-08-01T03:41:58.353Z,4.00
2022-08-01T03:42:58.352Z,0.00
2022-08-01T03:44:52.424Z,4.00
2022-08-01T03:45:52.394Z,4.00
2022-08-01T03:47:47.479Z,0.00
2022-08-01T03:48:47.509Z,4.00
2022-08-01T03:50:41.583Z,4.00
2022-08-01T03:51:41.563Z,4.00
2022-08-01T03:53:35.673Z,4.00
2022-08-01T03:54:35.650Z,4.00
2022-08-01T03:56:30.730Z,4.00
2022-08-01T03:57:36.733Z,8.00
2022-08-01T03:59:24.878Z,8.00
2022-08-01T04:00:24.862Z,12.00
2022-08-01T04:02:22.651Z,12.00
2022-08-01T04:03:18.925Z,12.00
2022-08-01T04:05:13.045Z,16.00
2022-08-01T04:06:13.034Z,20.00
2022-08-01T04:08:09.709Z,20.00
2022-08-01T04:09:13.348Z,24.00
2022-08-01T04:11:03.749Z,32.00
2022-08-01T04:12:12.169Z,36.00
2022-08-01T04:13:58.870Z,44.00
2022-08-01T04:14:58.849Z,52.00
2022-08-01T04:16:52.925Z,60.00
2022-08-01T04:17:52.919Z,60.00
2022-08-01T04:19:47.004Z,76.00
2022-08-01T04:20:46.989Z,88.00
2022-08-01T04:22:42.115Z,104.00
2022-08-01T04:23:42.098Z,108.00
2022-08-01T04:25:36.206Z,132.00
2022-08-01T04:26:36.201Z,132.00
2022-08-01T04:28:30.310Z,128.00
2022-08-01T04:29:30.293Z,140.00
2022-08-01T04:31:24.104Z,152.00
2022-08-01T04:32:24.092Z,128.00
2022-08-01T04:34:18.254Z,144.00
2022-08-01T04:35:23.062Z,132.00
2022-08-01T04:37:13.162Z,108.00
2022-08-01T04:38:12.392Z,112.00
2022-08-01T04:40:06.488Z,104.00
2022-08-01T04:41:09.146Z,108.00
2022-08-01T04:43:01.611Z,128.00
2022-08-01T04:44:01.602Z,132.00
2022-08-01T04:45:55.667Z,160.00
2022-08-01T04:46:55.663Z,180.00
2022-08-01T04:48:50.841Z,192.00
2022-08-01T04:49:50.803Z,188.00
2022-08-01T04:51:44.879Z,208.00
2022-08-01T04:52:44.873Z,216.00
2022-08-01T04:54:39.067Z,232.00
2022-08-01T04:55:39.050Z,244.00
2022-08-01T04:57:33.151Z,256.00
2022-08-01T04:58:33.134Z,288.00
2022-08-01T05:00:28.211Z,308.00
2022-08-01T05:01:28.294Z,320.00
2022-08-01T05:03:22.329Z,368.00
2022-08-01T05:04:22.310Z,408.00
2022-08-01T05:06:16.515Z,396.00
2022-08-01T05:07:16.507Z,388.00
2022-08-01T05:09:11.580Z,344.00
2022-08-01T05:10:11.556Z,300.00
2022-08-01T05:12:05.874Z,360.00
2022-08-01T05:13:05.643Z,336.00
2022-08-01T05:14:59.772Z,336.00
2022-08-01T05:15:59.757Z,332.00
2022-08-01T05:17:53.831Z,248.00
2022-08-01T05:18:53.828Z,244.00
2022-08-01T05:20:47.915Z,244.00
2022-08-01T05:21:47.900Z,244.00
2022-08-01T05:23:43.582Z,324.00
2022-08-01T05:24:41.979Z,328.00
2022-08-01T05:26:36.091Z,548.00
2022-08-01T05:27:36.078Z,488.00
2022-08-01T05:29:31.177Z,592.00
2022-08-01T05:30:31.159Z,644.00
2022-08-01T05:32:25.303Z,660.00
2022-08-01T05:33:25.300Z,592.00
2022-08-01T05:35:19.486Z,588.00
2022-08-01T05:36:19.470Z,540.00
2022-08-01T05:38:15.003Z,592.00
2022-08-01T05:39:13.692Z,596.00
2022-08-01T05:41:07.791Z,584.00
2022-08-01T05:42:08.271Z,640.00
2022-08-01T05:44:01.903Z,620.00
2022-08-01T05:45:01.888Z,584.00
2022-08-01T05:46:56.976Z,504.00
2022-08-01T05:47:56.970Z,452.00
2022-08-01T05:49:51.033Z,372.00
2022-08-01T05:50:53.757Z,360.00
2022-08-01T05:52:46.110Z,388.00
2022-08-01T05:53:46.102Z,360.00
2022-08-01T05:55:40.223Z,400.00
2022-08-01T05:56:40.212Z,428.00
2022-08-01T05:58:34.323Z,332.00
2022-08-01T05:59:34.326Z,276.00
2022-08-01T06:01:29.410Z,236.00
2022-08-01T06:02:29.430Z,308.00
2022-08-01T06:04:24.452Z,380.00
2022-08-01T06:05:24.439Z,372.00
2022-08-01T06:07:19.520Z,440.00
2022-08-01T06:08:19.511Z,480.00
2022-08-01T06:10:13.665Z,600.00
2022-08-01T06:11:13.653Z,612.00
2022-08-01T06:13:08.793Z,580.00
2022-08-01T06:14:08.794Z,680.00
2022-08-01T06:16:02.853Z,720.00
2022-08-01T06:17:02.839Z,540.00
2022-08-01T06:18:57.048Z,544.00
2022-08-01T06:19:56.927Z,524.00
2022-08-01T06:21:51.035Z,588.00
2022-08-01T06:22:51.767Z,568.00
2022-08-01T06:24:45.125Z,508.00
2022-08-01T06:25:45.102Z,584.00
2022-08-01T06:27:39.232Z,652.00
2022-08-01T06:28:39.226Z,784.00
2022-08-01T06:30:32.948Z,844.00
2022-08-01T06:31:33.868Z,828.00
2022-08-01T06:33:27.163Z,884.00
2022-08-01T06:34:27.155Z,1036.00
2022-08-01T06:36:21.281Z,1116.00
2022-08-01T06:37:21.266Z,1176.00
2022-08-01T06:39:15.419Z,1240.00
2022-08-01T06:40:17.368Z,1168.00
2022-08-01T06:42:09.642Z,968.00
2022-08-01T06:43:09.632Z,1208.00
2022-08-01T06:45:03.730Z,1620.00
2022-08-01T06:46:03.718Z,1976.00
2022-08-01T06:47:57.813Z,2148.00
2022-08-01T06:48:57.847Z,2488.00
2022-08-01T06:50:51.958Z,2472.00
2022-08-01T06:51:51.950Z,2320.00
2022-08-01T06:53:46.025Z,2568.00
2022-08-01T06:54:46.022Z,2624.00
2022-08-01T06:56:40.317Z,1880.00
2022-08-01T06:57:40.305Z,1588.00
2022-08-01T06:59:34.410Z,1872.00
2022-08-01T07:00:34.453Z,1764.00
2022-08-01T07:02:28.636Z,2280.00
2022-08-01T07:03:53.180Z,2076.00
2022-08-01T07:05:22.691Z,1800.00
2022-08-01T07:06:22.677Z,1624.00
2022-08-01T07:08:16.757Z,1656.00
2022-08-01T07:09:16.748Z,1516.00
2022-08-01T07:11:10.847Z,1520.00
2022-08-01T07:12:10.835Z,1616.00
2022-08-01T07:14:04.947Z,1940.00
2022-08-01T07:15:04.935Z,2524.00
2022-08-01T07:16:58.981Z,2712.00
2022-08-01T07:17:58.971Z,2736.00
2022-08-01T07:19:53.033Z,2308.00
2022-08-01T07:20:53.118Z,2368.00
2022-08-01T07:22:47.589Z,2532.00
2022-08-01T07:23:47.098Z,2228.00
2022-08-01T07:25:42.245Z,2184.00
2022-08-01T07:26:53.384Z,1988.00
2022-08-01T07:28:36.461Z,1528.00
2022-08-01T07:29:36.453Z,1376.00
2022-08-01T07:31:32.359Z,1464.00
2022-08-01T07:32:30.579Z,1800.00
2022-08-01T07:34:24.688Z,1524.00
2022-08-01T07:35:24.665Z,1308.00
2022-08-01T07:37:18.753Z,1044.00
2022-08-01T07:38:18.746Z,920.00
2022-08-01T07:40:13.020Z,860.00
2022-08-01T07:41:13.005Z,1060.00
2022-08-01T07:43:08.208Z,1220.00
2022-08-01T07:44:08.200Z,1472.00
2022-08-01T07:46:02.315Z,2284.00
2022-08-01T07:47:02.305Z,3704.00
2022-08-01T07:48:56.471Z,4480.00
2022-08-01T07:49:56.411Z,4312.00
2022-08-01T07:52:03.489Z,4908.00
2022-08-01T07:52:50.498Z,5448.00
2022-08-01T07:54:48.080Z,6168.00
2022-08-01T07:55:44.597Z,6316.00
2022-08-01T07:57:38.481Z,6316.00
2022-08-01T07:58:38.474Z,6164.00
2022-08-01T08:00:32.635Z,5404.00
2022-08-01T08:01:32.681Z,5180.00
2022-08-01T08:03:27.779Z,4076.00
2022-08-01T08:04:27.773Z,3968.00
2022-08-01T08:06:21.942Z,4104.00
2022-08-01T08:07:21.926Z,4096.00
2022-08-01T08:09:16.030Z,3660.00
2022-08-01T08:10:16.018Z,3256.00
2022-08-01T08:12:10.379Z,2804.00
2022-08-01T08:13:10.089Z,2672.00
2022-08-01T08:15:04.157Z,2544.00
2022-08-01T08:16:04.145Z,3052.00
2022-08-01T08:17:58.281Z,3456.00
2022-08-01T08:18:58.275Z,3292.00
2022-08-01T08:20:52.390Z,3028.00
2022-08-01T08:21:52.375Z,3300.00
2022-08-01T08:23:47.544Z,4020.00
2022-08-01T08:24:47.536Z,3628.00
2022-08-01T08:26:41.818Z,2780.00
2022-08-01T08:27:41.804Z,2520.00
2022-08-01T08:29:35.962Z,1956.00
2022-08-01T08:30:35.947Z,2000.00
2022-08-01T08:32:30.059Z,2496.00
2022-08-01T08:33:30.054Z,2504.00
2022-08-01T08:35:40.236Z,2612.00
2022-08-01T08:36:28.568Z,2740.00
2022-08-01T08:38:19.237Z,2752.00
2022-08-01T08:39:19.907Z,2664.00
2022-08-01T08:41:16.823Z,2644.00
2022-08-01T08:42:13.475Z,2932.00
2022-08-01T08:44:10.034Z,3324.00
2022-08-01T08:45:07.612Z,3652.00
2022-08-01T08:47:02.722Z,4236.00
2022-08-01T08:48:02.712Z,3984.00
2022-08-01T08:49:56.790Z,3080.00
2022-08-01T08:50:56.779Z,2748.00
2022-08-01T08:52:50.865Z,2668.00
2022-08-01T08:53:50.861Z,2836.00
2022-08-01T08:55:55.537Z,2908.00
2022-08-01T08:56:44.912Z,2924.00
2022-08-01T08:58:38.732Z,2968.00
2022-08-01T08:59:38.714Z,2928.00
2022-08-01T09:01:33.857Z,2820.00
2022-08-01T09:02:33.837Z,3044.00
2022-08-01T09:04:28.011Z,3072.00
2022-08-01T09:05:38.658Z,2920.00
2022-08-01T09:07:23.264Z,2764.00
2022-08-01T09:08:23.243Z,2624.00
2022-08-01T09:10:17.365Z,2364.00
2022-08-01T09:11:22.492Z,2148.00
2022-08-01T09:13:11.430Z,1988.00
2022-08-01T09:14:11.423Z,2044.00
2022-08-01T09:16:06.498Z,2636.00
2022-08-01T09:17:06.480Z,3296.00
2022-08-01T09:19:00.549Z,4984.00
2022-08-01T09:20:00.544Z,5124.00
2022-08-01T09:21:54.677Z,6380.00
2022-08-01T09:22:54.662Z,6072.00
2022-08-01T09:24:48.877Z,5616.00
2022-08-01T09:25:48.865Z,5220.00
2022-08-01T09:27:44.465Z,4796.00
2022-08-01T09:28:47.550Z,4900.00
2022-08-01T09:30:36.404Z,5992.00
2022-08-01T09:31:38.512Z,6052.00
2022-08-01T09:33:34.870Z,8080.00
2022-08-01T09:34:30.520Z,15124.00
2022-08-01T09:36:24.581Z,6364.00
2022-08-01T09:37:24.568Z,4860.00
2022-08-01T09:39:18.643Z,4248.00
2022-08-01T09:40:18.685Z,5012.00
2022-08-01T09:42:12.739Z,4684.00
2022-08-01T09:43:12.732Z,4880.00
2022-08-01T09:45:07.347Z,11832.00
2022-08-01T09:46:06.842Z,11128.00
2022-08-01T09:48:00.913Z,6380.00
2022-08-01T09:49:00.960Z,6356.00
2022-08-01T09:50:55.339Z,8612.00
2022-08-01T09:52:00.550Z,11708.00
2022-08-01T09:53:51.883Z,5100.00
2022-08-01T09:54:50.079Z,4396.00
2022-08-01T09:56:44.200Z,5820.00
2022-08-01T09:57:44.184Z,6540.00
2022-08-01T09:59:57.049Z,6792.00
2022-08-01T10:00:45.263Z,8708.00
2022-08-01T10:02:32.515Z,38944.00
2022-08-01T10:03:32.600Z,11152.00
2022-08-01T10:05:27.597Z,27840.00
2022-08-01T10:06:27.587Z,26592.00
2022-08-01T10:08:22.996Z,44096.00
2022-08-01T10:09:21.662Z,41504.00
2022-08-01T10:11:16.762Z,18144.00
2022-08-01T10:12:16.749Z,36320.00
2022-08-01T10:14:10.877Z,22496.00
2022-08-01T10:15:10.877Z,7516.00
2022-08-01T10:17:05.737Z,39904.00
2022-08-01T10:18:04.963Z,5668.00
2022-08-01T10:19:59.042Z,26624.00
2022-08-01T10:20:59.033Z,12736.00
2022-08-01T10:22:53.106Z,40736.00
2022-08-01T10:23:53.118Z,41248.00
2022-08-01T10:25:47.419Z,39296.00
2022-08-01T10:26:47.268Z,37600.00
2022-08-01T10:28:41.417Z,41760.00
2022-08-01T10:29:46.703Z,42464.00
2022-08-01T10:31:35.545Z,39232.00
2022-08-01T10:32:35.537Z,38720.00
2022-08-01T10:34:30.651Z,4056.00
2022-08-01T10:35:47.054Z,3616.00
2022-08-01T10:37:24.764Z,3908.00
2022-08-01T10:38:24.754Z,4724.00
2022-08-01T10:40:29.985Z,6680.00
2022-08-01T10:41:18.889Z,9640.00
2022-08-01T10:43:12.962Z,8920.00
2022-08-01T10:44:12.969Z,7040.00
2022-08-01T10:46:07.160Z,35680.00
2022-08-01T10:47:10.004Z,24544.00
2022-08-01T10:49:01.342Z,32416.00
2022-08-01T10:50:01.253Z,8148.00
2022-08-01T10:51:55.332Z,11800.00
2022-08-01T10:52:55.323Z,5264.00
2022-08-01T10:54:52.227Z,3884.00
2022-08-01T10:55:49.436Z,3196.00
2022-08-01T10:57:43.538Z,2800.00
2022-08-01T10:58:44.458Z,2928.00
2022-08-01T11:00:37.637Z,2884.00
2022-08-01T11:01:38.449Z,2680.00
2022-08-01T11:03:55.558Z,2784.00
2022-08-01T11:04:31.775Z,2716.00
2022-08-01T11:06:25.915Z,2296.00
2022-08-01T11:07:26.079Z,2032.00
2022-08-01T11:09:19.968Z,1836.00
2022-08-01T11:10:19.968Z,1896.00
2022-08-01T11:12:24.582Z,2244.00
2022-08-01T11:13:14.241Z,2272.00
2022-08-01T11:15:08.624Z,2356.00
2022-08-01T11:16:16.779Z,2336.00
2022-08-01T11:18:02.731Z,3704.00
2022-08-01T11:19:02.730Z,4492.00
2022-08-01T11:21:59.057Z,7968.00
2022-08-01T11:22:01.151Z,6812.00
2022-08-01T11:23:50.951Z,20928.00
2022-08-01T11:24:51.175Z,19616.00
2022-08-01T11:26:45.046Z,7120.00
2022-08-01T11:27:45.037Z,6504.00
2022-08-01T11:29:39.278Z,6232.00
2022-08-01T11:30:39.274Z,6176.00
2022-08-01T11:32:52.615Z,5892.00
2022-08-01T11:33:33.374Z,5976.00
2022-08-01T11:35:28.609Z,6212.00
2022-08-01T11:36:56.768Z,5980.00
2022-08-01T11:38:22.598Z,6392.00
2022-08-01T11:39:22.600Z,6284.00
2022-08-01T11:41:16.754Z,6528.00
2022-08-01T11:42:16.735Z,6584.00
2022-08-01T11:44:12.862Z,6804.00
2022-08-01T11:45:18.102Z,6336.00
2022-08-01T11:47:09.699Z,5592.00
2022-08-01T11:48:07.020Z,4576.00
2022-08-01T11:50:01.119Z,2876.00
2022-08-01T11:51:02.208Z,2288.00
2022-08-01T11:52:55.000Z,2228.00
2022-08-01T11:53:54.989Z,2840.00
2022-08-01T11:55:51.431Z,4092.00
2022-08-01T11:56:49.202Z,5000.00
2022-08-01T11:58:43.289Z,5228.00
2022-08-01T12:00:02.566Z,4848.00
2022-08-01T12:01:37.399Z,5056.00
2022-08-01T12:02:37.468Z,5100.00
2022-08-01T12:04:31.556Z,5068.00
2022-08-01T12:05:31.645Z,4852.00
2022-08-01T12:07:25.651Z,3956.00
2022-08-01T12:08:25.639Z,3308.00
2022-08-01T12:10:19.777Z,2360.00
2022-08-01T12:11:19.772Z,1900.00
2022-08-01T12:13:14.063Z,1264.00
2022-08-01T12:14:14.051Z,1076.00
2022-08-01T12:16:08.135Z,716.00
2022-08-01T12:17:08.534Z,588.00
2022-08-01T12:19:02.289Z,452.00
2022-08-01T12:20:02.290Z,460.00
2022-08-01T12:21:56.358Z,580.00
2022-08-01T12:22:56.343Z,652.00
2022-08-01T12:24:50.486Z,720.00
2022-08-01T12:25:50.483Z,716.00
2022-08-01T12:27:44.589Z,928.00
2022-08-01T12:28:44.577Z,1116.00
2022-08-01T12:30:38.301Z,1408.00
2022-08-01T12:31:38.286Z,1680.00
2022-08-01T12:33:35.062Z,2172.00
2022-08-01T12:34:32.447Z,2328.00
2022-08-01T12:36:26.529Z,2668.00
2022-08-01T12:37:26.520Z,2664.00
2022-08-01T12:39:20.790Z,2628.00
2022-08-01T12:40:20.787Z,2740.00
2022-08-01T12:42:14.958Z,3044.00
2022-08-01T12:43:15.776Z,3192.00
2022-08-01T12:45:09.024Z,3400.00
2022-08-01T12:46:09.019Z,3172.00
2022-08-01T12:48:03.120Z,3132.00
2022-08-01T12:49:03.168Z,3228.00
2022-08-01T12:50:57.176Z,3732.00
2022-08-01T12:51:57.707Z,3832.00
2022-08-01T12:53:51.338Z,3440.00
2022-08-01T12:54:51.338Z,3240.00
2022-08-01T12:56:45.558Z,2516.00
2022-08-01T12:57:45.556Z,2340.00
2022-08-01T12:59:39.615Z,2212.00
2022-08-01T13:00:39.612Z,2240.00
2022-08-01T13:02:33.710Z,2768.00
2022-08-01T13:03:33.697Z,3072.00
2022-08-01T13:05:28.790Z,3636.00
2022-08-01T13:06:28.778Z,3904.00
2022-08-01T13:08:22.981Z,4036.00
2022-08-01T13:09:22.979Z,3984.00
2022-08-01T13:11:17.799Z,4188.00
2022-08-01T13:12:17.058Z,4180.00
2022-08-01T13:14:11.117Z,3248.00
2022-08-01T13:15:11.113Z,2548.00
2022-08-01T13:17:08.575Z,1788.00
2022-08-01T13:18:06.205Z,1600.00
2022-08-01T13:20:00.254Z,1292.00
2022-08-01T13:21:00.253Z,1216.00
2022-08-01T13:22:54.329Z,1136.00
2022-08-01T13:24:02.699Z,1132.00
2022-08-01T13:25:49.412Z,1484.00
2022-08-01T13:26:49.407Z,1704.00
2022-08-01T13:28:43.477Z,1888.00
2022-08-01T13:29:43.482Z,1900.00
2022-08-01T13:31:37.550Z,1928.00
2022-08-01T13:32:37.540Z,2080.00
2022-08-01T13:34:31.705Z,2692.00
2022-08-01T13:35:31.700Z,3024.00
2022-08-01T13:37:25.590Z,3204.00
2022-08-01T13:38:25.578Z,3144.00
2022-08-01T13:40:19.673Z,2848.00
2022-08-01T13:41:19.667Z,3112.00
2022-08-01T13:43:13.781Z,3440.00
2022-08-01T13:44:13.765Z,3392.00
2022-08-01T13:46:07.958Z,3372.00
2022-08-01T13:47:14.785Z,3344.00
2022-08-01T13:49:06.854Z,3464.00
2022-08-01T13:50:02.198Z,3384.00
2022-08-01T13:51:56.115Z,2580.00
2022-08-01T13:52:56.106Z,2016.00
2022-08-01T13:54:50.250Z,1212.00
2022-08-01T13:55:50.247Z,948.00
2022-08-01T13:57:44.299Z,800.00
2022-08-01T13:58:44.291Z,908.00
2022-08-01T14:00:38.382Z,1484.00
2022-08-01T14:01:38.395Z,1704.00
2022-08-01T14:03:33.833Z,1924.00
2022-08-01T14:04:32.661Z,1920.00
2022-08-01T14:06:26.802Z,1976.00
2022-08-01T14:07:26.895Z,1932.00
2022-08-01T14:09:23.839Z,1800.00
2022-08-01T14:10:22.666Z,1764.00
2022-08-01T14:12:15.965Z,1900.00
2022-08-01T14:13:15.954Z,2088.00
2022-08-01T14:15:10.281Z,2472.00
2022-08-01T14:16:10.278Z,2504.00
2022-08-01T14:18:05.811Z,2700.00
2022-08-01T14:19:04.388Z,2736.00
2022-08-01T14:21:01.271Z,2632.00
2022-08-01T14:21:58.479Z,2588.00
2022-08-01T14:23:52.591Z,2608.00
2022-08-01T14:24:52.592Z,2652.00
2022-08-01T14:26:46.724Z,2752.00
2022-08-01T14:27:46.715Z,2808.00
2022-08-01T14:29:59.904Z,2752.00
2022-08-01T14:30:40.842Z,2884.00
2022-08-01T14:32:34.936Z,2876.00
2022-08-01T14:33:34.928Z,2856.00
2022-08-01T14:35:29.070Z,2880.00
2022-08-01T14:36:31.486Z,2916.00
2022-08-01T14:38:31.168Z,3004.00
2022-08-01T14:39:23.139Z,3056.00
2022-08-01T14:41:17.278Z,3220.00
2022-08-01T14:42:17.265Z,3260.00
2022-08-01T14:44:11.389Z,3340.00
2022-08-01T14:45:11.383Z,3348.00
2022-08-01T14:47:21.397Z,3416.00
2022-08-01T14:48:06.506Z,3436.00
2022-08-01T14:50:00.597Z,3408.00
2022-08-01T14:51:00.596Z,3376.00
2022-08-01T14:52:54.718Z,3272.00
2022-08-01T14:53:54.701Z,3172.00
2022-08-01T14:55:48.812Z,2912.00
2022-08-01T14:56:48.805Z,2760.00
2022-08-01T14:58:42.878Z,2560.00
2022-08-01T14:59:42.876Z,2572.00
2022-08-01T15:01:38.085Z,2520.00
2022-08-01T15:02:38.021Z,2384.00
2022-08-01T15:04:33.201Z,2216.00
2022-08-01T15:05:33.198Z,2224.00
2022-08-01T15:07:27.322Z,2196.00
2022-08-01T15:08:27.319Z,2220.00
2022-08-01T15:10:21.466Z,2176.00
2022-08-01T15:11:21.463Z,2076.00
2022-08-01T15:13:16.237Z,1920.00
2022-08-01T15:14:16.228Z,1844.00
2022-08-01T15:16:12.007Z,1788.00
2022-08-01T15:17:10.391Z,1824.00
2022-08-01T15:19:04.490Z,1804.00
2022-08-01T15:20:04.489Z,1804.00
2022-08-01T15:22:00.089Z,1868.00
2022-08-01T15:22:58.559Z,1924.00
2022-08-01T15:24:57.120Z,1968.00
2022-08-01T15:25:52.673Z,2004.00
2022-08-01T15:27:46.961Z,2116.00
2022-08-01T15:28:46.947Z,2160.00
2022-08-01T15:30:40.678Z,2312.00
2022-08-01T15:31:40.667Z,2348.00
2022-08-01T15:34:25.491Z,2288.00
2022-08-01T15:35:25.483Z,2288.00
2022-08-01T15:37:19.659Z,2300.00
2022-08-01T15:38:19.650Z,2336.00
2022-08-01T15:40:13.724Z,2416.00
2022-08-01T15:41:13.724Z,2504.00
2022-08-01T15:43:08.869Z,2612.00
2022-08-01T15:44:08.851Z,2680.00
2022-08-01T15:46:02.932Z,2608.00
2022-08-01T15:47:02.926Z,2560.00
2022-08-01T15:48:57.084Z,2448.00
2022-08-01T15:49:57.025Z,2324.00
2022-08-01T15:51:51.304Z,2124.00
2022-08-01T15:52:51.292Z,2024.00
2022-08-01T15:54:45.386Z,2116.00
2022-08-01T15:55:52.668Z,2040.00
2022-08-01T15:57:39.475Z,1816.00
2022-08-01T15:58:39.461Z,1744.00
2022-08-01T16:00:36.086Z,1652.00
2022-08-01T16:01:33.610Z,1672.00
2022-08-01T16:03:28.698Z,1764.00
2022-08-01T16:04:30.009Z,1924.00
2022-08-01T16:06:23.812Z,2168.00
2022-08-01T16:07:23.796Z,2100.00
2022-08-01T16:09:19.291Z,2120.00
2022-08-01T16:10:18.893Z,2160.00
2022-08-01T16:12:12.628Z,2096.00
2022-08-01T16:13:12.624Z,1976.00
2022-08-01T16:15:06.698Z,1892.00
2022-08-01T16:16:06.695Z,1880.00
2022-08-01T16:18:01.925Z,1912.00
2022-08-01T16:19:00.748Z,1904.00
2022-08-01T16:20:54.825Z,1716.00
2022-08-01T16:21:54.811Z,1580.00
2022-08-01T16:23:48.944Z,1548.00
2022-08-01T16:24:48.940Z,1624.00
2022-08-01T16:26:43.175Z,1592.00
2022-08-01T16:27:43.114Z,1548.00
2022-08-01T16:29:37.239Z,1476.00
2022-08-01T16:30:37.234Z,1420.00
2022-08-01T16:32:41.511Z,1440.00
2022-08-01T16:33:48.073Z,1528.00
2022-08-01T16:35:31.358Z,1472.00
2022-08-01T16:36:26.370Z,1444.00
2022-08-01T16:38:21.010Z,1400.00
2022-08-01T16:39:23.226Z,1408.00
2022-08-01T16:41:20.152Z,1244.00
2022-08-01T16:42:14.548Z,1192.00
2022-08-01T16:44:08.686Z,1020.00
2022-08-01T16:45:13.650Z,916.00
2022-08-01T16:47:02.807Z,824.00
2022-08-01T16:48:02.785Z,768.00
2022-08-01T16:49:56.957Z,780.00
2022-08-01T16:50:56.955Z,784.00
2022-08-01T16:52:51.056Z,752.00
2022-08-01T16:53:51.042Z,752.00
2022-08-01T16:55:50.512Z,708.00
2022-08-01T16:56:48.255Z,676.00
2022-08-01T16:58:39.249Z,720.00
2022-08-01T16:59:40.838Z,752.00
2022-08-01T17:01:59.433Z,736.00
2022-08-01T17:02:33.460Z,724.00
2022-08-01T17:04:27.493Z,688.00
2022-08-01T17:05:27.487Z,664.00
2022-08-01T17:07:21.707Z,676.00
2022-08-01T17:08:21.701Z,672.00
2022-08-01T17:10:15.806Z,676.00
2022-08-01T17:11:15.797Z,676.00
2022-08-01T17:13:09.875Z,644.00
2022-08-01T17:14:09.864Z,628.00
2022-08-01T17:16:03.939Z,568.00
2022-08-01T17:17:04.312Z,524.00
2022-08-01T17:18:57.967Z,464.00
2022-08-01T17:19:57.963Z,444.00
2022-08-01T17:21:52.033Z,424.00
2022-08-01T17:22:52.023Z,416.00
2022-08-01T17:24:46.084Z,404.00
2022-08-01T17:25:46.075Z,388.00
2022-08-01T17:27:41.172Z,372.00
2022-08-01T17:28:41.161Z,364.00
2022-08-01T17:30:34.903Z,348.00
2022-08-01T17:31:34.894Z,344.00
2022-08-01T17:33:45.951Z,336.00
2022-08-01T17:34:29.065Z,332.00
2022-08-01T17:36:23.209Z,328.00
2022-08-01T17:37:23.171Z,324.00
2022-08-01T17:39:23.175Z,328.00
2022-08-01T17:40:39.029Z,336.00
2022-08-01T17:42:12.583Z,352.00
2022-08-01T17:43:12.574Z,372.00
2022-08-01T17:45:06.758Z,420.00
2022-08-01T17:46:06.752Z,440.00
2022-08-01T17:48:00.873Z,448.00
2022-08-01T17:49:00.946Z,440.00
2022-08-01T17:50:54.958Z,460.00
2022-08-01T17:51:54.945Z,516.00
2022-08-01T17:53:56.726Z,608.00
2022-08-01T17:54:48.980Z,628.00
2022-08-01T17:56:45.987Z,608.00
2022-08-01T17:57:43.078Z,584.00
2022-08-01T17:59:37.154Z,652.00
2022-08-01T18:00:37.150Z,824.00
2022-08-01T18:02:31.329Z,1076.00
2022-08-01T18:03:31.320Z,1104.00